createdAt,value
2023-04-26T00:00:53.703Z,3.37
2023-04-26T00:03:21.050Z,2.00
2023-04-26T00:05:49.142Z,2.40
2023-04-26T00:08:16.146Z,3.87
2023-04-26T00:10:43.108Z,2.42
2023-04-26T00:13:10.032Z,1.73
2023-04-26T00:15:37.396Z,2.00
2023-04-26T00:18:04.625Z,3.45
2023-04-26T00:20:31.667Z,3.60
2023-04-26T00:22:58.612Z,4.72
2023-04-26T00:25:26.158Z,4.72
2023-04-26T00:27:53.251Z,3.28
2023-04-26T00:30:20.449Z,3.33
2023-04-26T00:32:48.298Z,2.67
2023-04-26T00:35:15.349Z,3.10
2023-04-26T00:37:42.588Z,5.95
2023-04-26T00:40:10.699Z,4.97
2023-04-26T00:42:41.519Z,4.45
2023-04-26T00:45:08.914Z,3.53
2023-04-26T00:47:36.686Z,2.83
2023-04-26T00:50:04.862Z,5.47
2023-04-26T00:52:32.426Z,3.62
2023-04-26T00:54:59.503Z,7.07
2023-04-26T00:57:26.631Z,4.65
2023-04-26T00:59:53.551Z,4.65
2023-04-26T01:02:21.177Z,4.47
2023-04-26T01:04:48.382Z,3.45
2023-04-26T01:07:15.537Z,5.28
2023-04-26T01:09:44.371Z,4.93
2023-04-26T01:12:13.388Z,5.30
2023-04-26T01:14:41.099Z,4.80
2023-04-26T01:17:08.094Z,5.85
2023-04-26T01:19:37.836Z,6.82
2023-04-26T01:22:04.774Z,5.30
2023-04-26T01:24:35.851Z,5.90
2023-04-26T01:27:04.327Z,8.10
2023-04-26T01:29:32.412Z,6.05
2023-04-26T01:31:59.278Z,7.28
2023-04-26T01:34:26.479Z,6.70
2023-04-26T01:36:53.956Z,5.53
2023-04-26T01:39:20.996Z,6.47
2023-04-26T01:41:47.925Z,8.27
2023-04-26T01:44:14.867Z,5.90
2023-04-26T01:46:41.967Z,6.35
2023-04-26T01:49:09.076Z,7.30
2023-04-26T01:51:36.565Z,7.00
2023-04-26T01:54:03.541Z,6.60
2023-04-26T01:56:30.595Z,6.15
2023-04-26T01:58:57.707Z,6.12
2023-04-26T02:01:24.938Z,8.18
2023-04-26T02:03:52.780Z,6.20
2023-04-26T02:06:19.741Z,7.00
2023-04-26T02:08:46.702Z,7.15
2023-04-26T02:11:13.649Z,5.43
2023-04-26T02:13:40.651Z,5.68
2023-04-26T02:16:08.123Z,8.68
2023-04-26T02:18:35.123Z,7.30
2023-04-26T02:21:02.070Z,9.57
2023-04-26T02:23:29.035Z,7.25
2023-04-26T02:25:55.944Z,7.22
2023-04-26T02:28:22.900Z,7.55
2023-04-26T02:30:50.066Z,5.70
2023-04-26T02:33:17.121Z,7.85
2023-04-26T02:35:44.111Z,6.40
2023-04-26T02:38:11.004Z,8.07
2023-04-26T02:40:37.937Z,5.75
2023-04-26T02:43:05.682Z,6.05
2023-04-26T02:45:32.615Z,6.25
2023-04-26T02:47:59.612Z,6.10
2023-04-26T02:50:26.552Z,5.57
2023-04-26T02:52:53.562Z,8.70
2023-04-26T02:55:20.701Z,9.98
2023-04-26T02:57:47.607Z,5.60
2023-04-26T03:00:14.792Z,8.80
2023-04-26T03:02:41.981Z,9.07
2023-04-26T03:05:09.869Z,11.82
2023-04-26T03:07:37.415Z,9.15
2023-04-26T03:10:05.457Z,8.38
2023-04-26T03:12:32.536Z,7.50
2023-04-26T03:14:59.532Z,8.48
2023-04-26T03:17:26.848Z,10.73
2023-04-26T03:19:53.877Z,6.68
2023-04-26T03:22:21.343Z,7.80
2023-04-26T03:24:49.417Z,6.75
2023-04-26T03:27:16.825Z,8.63
2023-04-26T03:29:44.238Z,8.43
2023-04-26T03:32:11.437Z,8.18
2023-04-26T03:34:38.411Z,6.80
2023-04-26T03:37:05.543Z,8.35
2023-04-26T03:39:32.621Z,7.07
2023-04-26T03:41:59.728Z,7.20
2023-04-26T03:44:27.738Z,7.50
2023-04-26T03:46:56.379Z,7.77
2023-04-26T03:49:23.293Z,11.88
2023-04-26T03:51:50.211Z,6.55
2023-04-26T03:54:17.158Z,8.70
2023-04-26T03:56:44.057Z,7.87
2023-04-26T03:59:11.123Z,9.13
2023-04-26T04:01:38.184Z,10.38
2023-04-26T04:04:05.429Z,11.23
2023-04-26T04:06:33.105Z,7.80
2023-04-26T04:09:00.076Z,9.52
2023-04-26T04:11:27.064Z,9.98
2023-04-26T04:13:54.012Z,9.30
2023-04-26T04:16:21.070Z,9.98
2023-04-26T04:18:48.159Z,6.90
2023-04-26T04:21:15.357Z,8.23
2023-04-26T04:23:43.714Z,11.52
2023-04-26T04:26:12.855Z,9.88
2023-04-26T04:28:41.843Z,8.68
2023-04-26T04:31:11.910Z,6.70
2023-04-26T04:33:39.053Z,7.47
2023-04-26T04:36:06.996Z,7.55
2023-04-26T04:38:34.086Z,7.40
2023-04-26T04:41:01.007Z,9.60
2023-04-26T04:43:28.239Z,6.65
2023-04-26T04:45:55.783Z,8.05
2023-04-26T04:48:22.818Z,8.63
2023-04-26T04:50:50.088Z,7.35
2023-04-26T04:53:17.621Z,8.82
2023-04-26T04:55:44.754Z,7.15
2023-04-26T04:58:12.531Z,8.48
2023-04-26T05:00:39.943Z,7.53
2023-04-26T05:03:10.212Z,7.10
2023-04-26T05:05:38.012Z,7.05
2023-04-26T05:08:07.863Z,8.32
2023-04-26T05:10:36.239Z,9.75
2023-04-26T05:13:03.366Z,7.90
2023-04-26T05:15:30.328Z,8.40
2023-04-26T05:17:58.569Z,5.40
2023-04-26T05:20:26.081Z,5.93
2023-04-26T05:22:53.171Z,8.48
2023-04-26T05:25:22.262Z,7.90
2023-04-26T05:27:49.686Z,8.63
2023-04-26T05:30:16.922Z,6.87
2023-04-26T05:32:44.173Z,11.15
2023-04-26T05:35:11.032Z,7.20
2023-04-26T05:37:40.119Z,8.68
2023-04-26T05:40:09.063Z,8.80
2023-04-26T05:42:35.988Z,7.63
2023-04-26T05:45:02.906Z,7.53
2023-04-26T05:47:29.874Z,10.80
2023-04-26T05:49:56.844Z,8.25
2023-04-26T05:52:23.760Z,7.37
2023-04-26T05:54:50.675Z,7.65
2023-04-26T05:57:18.252Z,8.60
2023-04-26T05:59:45.540Z,9.07
2023-04-26T06:02:12.626Z,5.68
2023-04-26T06:04:39.854Z,8.18
2023-04-26T06:07:07.495Z,8.85
2023-04-26T06:09:34.463Z,8.05
2023-04-26T06:12:02.448Z,8.85
2023-04-26T06:14:30.803Z,8.55
2023-04-26T06:16:58.534Z,6.70
2023-04-26T06:19:25.722Z,7.28
2023-04-26T06:21:55.142Z,6.10
2023-04-26T06:24:22.130Z,7.30
2023-04-26T06:26:50.067Z,5.62
2023-04-26T06:29:17.792Z,5.68
2023-04-26T06:31:44.745Z,5.62
2023-04-26T06:34:11.695Z,4.90
2023-04-26T06:36:38.621Z,5.45
2023-04-26T06:39:05.656Z,5.37
2023-04-26T06:41:32.621Z,17.48
2023-04-26T06:43:59.615Z,6.15
2023-04-26T06:46:26.515Z,5.30
2023-04-26T06:48:55.641Z,4.60
2023-04-26T06:51:22.670Z,15.55
2023-04-26T06:53:49.984Z,5.53
2023-04-26T06:56:17.195Z,9.02
2023-04-26T06:59:00.734Z,6.35
2023-04-26T07:01:29.583Z,5.35
2023-04-26T07:03:57.943Z,3.97
2023-04-26T07:06:26.500Z,4.40
2023-04-26T07:08:54.202Z,8.32
2023-04-26T07:11:23.410Z,8.15
2023-04-26T07:13:52.020Z,4.60
2023-04-26T07:16:31.940Z,4.87
2023-04-26T07:19:04.062Z,4.68
2023-04-26T07:21:31.086Z,6.18
2023-04-26T07:23:58.342Z,4.85
2023-04-26T07:26:29.953Z,3.97
2023-04-26T07:28:56.971Z,5.75
2023-04-26T07:31:23.895Z,3.80
2023-04-26T07:33:51.358Z,4.57
2023-04-26T07:36:18.544Z,4.95
2023-04-26T07:38:45.523Z,2.95
2023-04-26T07:41:13.241Z,5.75
2023-04-26T07:43:40.266Z,6.28
2023-04-26T07:46:07.385Z,8.38
2023-04-26T07:48:34.483Z,4.57
2023-04-26T07:51:11.266Z,5.35
2023-04-26T07:53:39.583Z,5.40
2023-04-26T07:56:10.650Z,6.65
2023-04-26T07:58:39.455Z,7.40
2023-04-26T08:01:06.721Z,4.85
2023-04-26T08:03:33.786Z,8.88
2023-04-26T08:06:02.152Z,4.37
2023-04-26T08:08:29.739Z,6.03
2023-04-26T08:10:56.747Z,8.40
2023-04-26T08:13:23.657Z,6.68
2023-04-26T08:15:50.596Z,5.68
2023-04-26T08:18:17.486Z,8.95
2023-04-26T08:20:44.471Z,6.55
2023-04-26T08:23:11.451Z,6.07
2023-04-26T08:25:38.572Z,5.65
2023-04-26T08:28:08.838Z,5.93
2023-04-26T08:30:35.845Z,6.70
2023-04-26T08:33:03.658Z,10.95
2023-04-26T08:35:30.742Z,7.20
2023-04-26T08:37:58.250Z,6.32
2023-04-26T08:40:25.760Z,6.60
2023-04-26T08:42:54.064Z,9.82
2023-04-26T08:45:21.941Z,6.50
2023-04-26T08:47:56.007Z,3.95
2023-04-26T08:50:24.077Z,4.85
2023-04-26T08:52:53.026Z,7.50
2023-04-26T08:55:21.889Z,6.50
2023-04-26T08:57:50.943Z,6.12
2023-04-26T09:00:19.962Z,5.10
2023-04-26T09:02:49.491Z,7.43
2023-04-26T09:07:46.108Z,4.75
2023-04-26T09:10:18.209Z,7.70
2023-04-26T09:12:45.166Z,10.68
2023-04-26T09:15:12.279Z,5.40
2023-04-26T09:17:42.010Z,5.95
2023-04-26T09:20:22.018Z,4.70
2023-04-26T09:22:51.002Z,7.28
2023-04-26T09:25:20.304Z,4.90
2023-04-26T09:27:47.350Z,7.22
2023-04-26T09:30:20.946Z,5.65
2023-04-26T09:32:58.123Z,4.95
2023-04-26T09:35:31.798Z,5.93
2023-04-26T09:38:11.103Z,3.37
2023-04-26T09:40:46.416Z,4.18
2023-04-26T09:43:16.154Z,5.07
2023-04-26T09:45:57.314Z,5.57
2023-04-26T09:48:27.002Z,4.70
2023-04-26T09:50:56.130Z,7.87
2023-04-26T09:53:32.418Z,5.20
2023-04-26T09:56:14.013Z,4.20
2023-04-26T09:58:59.484Z,4.65
2023-04-26T10:01:30.067Z,7.25
2023-04-26T10:03:58.161Z,5.53
2023-04-26T10:06:33.105Z,5.75
2023-04-26T10:09:02.122Z,7.82
2023-04-26T10:11:29.271Z,4.37
2023-04-26T10:13:56.411Z,5.85
2023-04-26T10:16:24.651Z,6.97
2023-04-26T10:18:51.957Z,5.47
2023-04-26T10:21:28.900Z,3.72
2023-04-26T10:23:56.840Z,5.37
2023-04-26T10:26:53.775Z,6.22
2023-04-26T10:29:21.376Z,5.93
2023-04-26T10:32:07.122Z,7.05
2023-04-26T10:34:35.166Z,9.32
2023-04-26T10:37:18.611Z,5.60
2023-04-26T10:39:47.585Z,9.85
2023-04-26T10:42:28.102Z,5.25
2023-04-26T10:44:55.895Z,8.95
2023-04-26T10:47:34.306Z,5.85
2023-04-26T10:50:09.270Z,9.25
2023-04-26T10:52:38.426Z,5.10
2023-04-26T10:55:06.980Z,6.53
2023-04-26T10:57:51.322Z,5.95
2023-04-26T11:00:21.355Z,5.75
2023-04-26T11:03:05.271Z,7.62
2023-04-26T11:05:47.678Z,6.00
2023-04-26T11:08:17.036Z,5.32
2023-04-26T11:13:13.498Z,7.03
2023-04-26T11:15:40.624Z,4.18
2023-04-26T11:18:07.777Z,4.47
2023-04-26T11:20:34.948Z,7.68
2023-04-26T11:23:02.424Z,4.03
2023-04-26T11:25:30.289Z,4.45
2023-04-26T11:28:00.928Z,3.60
2023-04-26T11:30:32.216Z,6.78
2023-04-26T11:33:06.831Z,5.20
2023-04-26T11:35:39.310Z,4.25
2023-04-26T11:38:06.319Z,4.55
2023-04-26T11:40:37.563Z,4.93
2023-04-26T11:43:05.969Z,9.35
2023-04-26T11:45:35.339Z,6.72
2023-04-26T11:48:11.425Z,4.90
2023-04-26T11:50:40.172Z,4.78
2023-04-26T11:53:08.995Z,6.37
2023-04-26T11:55:36.219Z,4.10
2023-04-26T11:58:11.908Z,5.87
2023-04-26T12:00:56.480Z,5.05
2023-04-26T12:03:24.047Z,3.92
2023-04-26T12:05:57.315Z,3.72
2023-04-26T12:08:26.347Z,6.22
2023-04-26T12:10:54.212Z,3.33
2023-04-26T12:13:21.372Z,9.35
2023-04-26T12:15:50.571Z,6.32
2023-04-26T12:18:18.055Z,5.37
2023-04-26T12:20:46.906Z,5.07
2023-04-26T12:23:17.714Z,3.90
2023-04-26T12:25:57.188Z,5.68
2023-04-26T12:28:25.009Z,6.95
2023-04-26T12:30:52.410Z,5.30
2023-04-26T12:33:23.098Z,4.05
2023-04-26T12:35:51.077Z,3.30
2023-04-26T12:38:21.777Z,9.02
2023-04-26T12:40:48.767Z,5.30
2023-04-26T12:43:16.932Z,4.07
2023-04-26T12:45:43.904Z,6.37
2023-04-26T12:48:12.164Z,5.75
2023-04-26T12:50:39.349Z,4.78
2023-04-26T12:53:06.344Z,6.95
2023-04-26T12:55:33.794Z,5.10
2023-04-26T12:58:01.168Z,5.47
2023-04-26T13:00:28.329Z,6.57
2023-04-26T13:02:55.958Z,5.97
2023-04-26T13:05:25.110Z,7.05
2023-04-26T13:07:52.875Z,6.18
2023-04-26T13:10:20.272Z,4.40
2023-04-26T13:12:47.205Z,3.62
2023-04-26T13:15:16.141Z,3.30
2023-04-26T13:17:44.763Z,5.68
2023-04-26T13:20:12.320Z,4.37
2023-04-26T13:22:42.120Z,4.18
2023-04-26T13:25:09.749Z,6.40
2023-04-26T13:27:37.402Z,3.75
2023-04-26T13:30:04.784Z,4.82
2023-04-26T13:32:32.234Z,4.90
2023-04-26T13:34:59.613Z,3.55
2023-04-26T13:37:27.203Z,3.80
2023-04-26T13:39:54.484Z,2.45
2023-04-26T13:42:21.539Z,3.55
2023-04-26T13:44:48.469Z,3.30
2023-04-26T13:47:15.406Z,4.30
2023-04-26T13:49:42.375Z,5.03
2023-04-26T13:52:09.340Z,3.35
2023-04-26T13:54:37.143Z,4.80
2023-04-26T13:57:04.665Z,5.80
2023-04-26T13:59:32.155Z,3.67
2023-04-26T14:01:59.774Z,5.25
2023-04-26T14:04:27.603Z,5.70
2023-04-26T14:06:54.688Z,7.47
2023-04-26T14:09:21.941Z,3.37
2023-04-26T14:11:57.086Z,4.22
2023-04-26T14:14:27.733Z,2.70
2023-04-26T14:16:54.691Z,4.05
2023-04-26T14:19:21.733Z,4.10
2023-04-26T14:21:48.665Z,5.50
2023-04-26T14:24:15.851Z,4.53
2023-04-26T14:26:42.904Z,5.45
2023-04-26T14:29:09.967Z,6.37
2023-04-26T14:31:37.274Z,6.10
2023-04-26T14:34:04.173Z,4.95
2023-04-26T14:36:32.315Z,6.18
2023-04-26T14:38:59.250Z,4.25
2023-04-26T14:41:26.587Z,3.80
2023-04-26T14:43:53.974Z,3.08
2023-04-26T14:46:20.941Z,3.20
2023-04-26T14:48:48.192Z,3.90
2023-04-26T14:51:15.086Z,2.83
2023-04-26T14:53:42.045Z,4.62
2023-04-26T14:56:09.681Z,4.18
2023-04-26T14:58:36.701Z,3.30
2023-04-26T15:01:04.568Z,3.87
2023-04-26T15:03:32.845Z,3.40
2023-04-26T15:06:00.274Z,3.08
2023-04-26T15:08:27.500Z,9.75
2023-04-26T15:10:54.416Z,2.67
2023-04-26T15:13:21.308Z,4.37
2023-04-26T15:15:48.540Z,2.67
2023-04-26T15:18:15.564Z,5.30
2023-04-26T15:20:42.620Z,5.82
2023-04-26T15:23:09.545Z,6.32
2023-04-26T15:25:39.634Z,4.72
2023-04-26T15:28:06.542Z,4.32
2023-04-26T15:30:33.554Z,5.62
2023-04-26T15:33:01.398Z,4.82
2023-04-26T15:35:28.451Z,2.65
2023-04-26T15:37:55.398Z,6.12
2023-04-26T15:40:22.727Z,3.33
2023-04-26T15:42:50.289Z,3.45
2023-04-26T15:45:17.641Z,6.53
2023-04-26T15:47:44.913Z,3.72
2023-04-26T15:50:12.331Z,5.72
2023-04-26T15:52:39.863Z,7.28
2023-04-26T15:55:07.561Z,5.03
2023-04-26T15:57:34.874Z,7.12
2023-04-26T16:00:02.094Z,2.95
2023-04-26T16:02:29.137Z,4.28
2023-04-26T16:04:56.756Z,4.90
2023-04-26T16:07:23.823Z,3.58
2023-04-26T16:09:50.816Z,5.12
2023-04-26T16:12:17.781Z,4.78
2023-04-26T16:14:44.798Z,3.95
2023-04-26T16:17:11.722Z,3.70
2023-04-26T16:19:38.664Z,4.62
2023-04-26T16:22:05.735Z,5.35
2023-04-26T16:24:32.708Z,3.25
2023-04-26T16:26:59.682Z,3.47
2023-04-26T16:29:26.929Z,5.07
2023-04-26T16:31:54.147Z,5.20
2023-04-26T16:34:21.205Z,5.45
2023-04-26T16:36:48.473Z,5.35
2023-04-26T16:39:16.372Z,5.28
2023-04-26T16:41:43.978Z,5.47
2023-04-26T16:44:11.412Z,4.07
2023-04-26T16:46:38.428Z,8.95
2023-04-26T16:49:09.721Z,9.95
2023-04-26T16:51:38.204Z,9.07
2023-04-26T16:54:05.494Z,5.12
2023-04-26T16:56:32.649Z,4.68
2023-04-26T16:58:59.799Z,7.80
2023-04-26T17:01:27.062Z,7.62
2023-04-26T17:03:54.599Z,9.10
2023-04-26T17:06:21.697Z,7.82
2023-04-26T17:08:48.567Z,11.85
2023-04-26T17:11:18.729Z,8.35
2023-04-26T17:13:45.817Z,8.85
2023-04-26T17:16:13.015Z,8.35
2023-04-26T17:18:39.993Z,7.85
2023-04-26T17:21:07.327Z,9.38
2023-04-26T17:23:34.889Z,10.00
2023-04-26T17:26:02.178Z,9.05
2023-04-26T17:28:29.448Z,9.57
2023-04-26T17:30:56.447Z,11.88
2023-04-26T17:33:23.975Z,8.35
2023-04-26T17:35:50.908Z,12.23
2023-04-26T17:38:18.046Z,10.00
2023-04-26T17:40:44.962Z,8.15
2023-04-26T17:43:11.873Z,7.78
2023-04-26T17:45:38.874Z,13.18
2023-04-26T17:48:10.884Z,9.57
2023-04-26T17:50:37.846Z,8.65
2023-04-26T17:53:06.030Z,9.95
2023-04-26T17:55:33.706Z,11.88
2023-04-26T17:58:01.128Z,14.98
2023-04-26T18:00:28.414Z,18.20
2023-04-26T18:02:56.562Z,22.00
2023-04-26T18:05:24.754Z,16.10
2023-04-26T18:07:52.065Z,16.87
2023-04-26T18:10:19.242Z,16.45
2023-04-26T18:12:46.488Z,12.68
2023-04-26T18:15:14.105Z,12.02
2023-04-26T18:17:41.775Z,12.40
2023-04-26T18:20:09.640Z,16.00
2023-04-26T18:22:36.608Z,20.50
2023-04-26T18:25:04.104Z,16.02
2023-04-26T18:27:32.083Z,17.23
2023-04-26T18:29:59.167Z,15.73
2023-04-26T18:32:26.279Z,19.62
2023-04-26T18:34:53.272Z,22.60
2023-04-26T18:37:20.480Z,23.25
2023-04-26T18:39:48.805Z,24.20
2023-04-26T18:42:16.052Z,43.20
2023-04-26T18:44:43.060Z,38.97
2023-04-26T18:47:10.094Z,25.33
2023-04-26T18:49:37.075Z,32.10
2023-04-26T18:52:04.200Z,23.52
2023-04-26T18:54:32.364Z,30.60
2023-04-26T18:57:00.271Z,28.02
2023-04-26T18:59:28.346Z,21.90
2023-04-26T19:01:55.311Z,21.95
2023-04-26T19:04:22.347Z,21.02
2023-04-26T19:06:49.525Z,21.73
2023-04-26T19:09:16.951Z,21.45
2023-04-26T19:11:43.886Z,17.05
2023-04-26T19:14:10.969Z,16.83
2023-04-26T19:16:38.629Z,13.65
2023-04-26T19:19:05.962Z,10.48
2023-04-26T19:21:33.395Z,11.95
2023-04-26T19:24:00.332Z,8.60
2023-04-26T19:26:27.269Z,10.70
2023-04-26T19:28:56.060Z,12.90
2023-04-26T19:31:23.174Z,12.63
2023-04-26T19:33:50.161Z,11.32
2023-04-26T19:36:17.103Z,16.00
2023-04-26T19:38:44.166Z,11.55
2023-04-26T19:41:11.128Z,11.12
2023-04-26T19:43:37.990Z,10.70
2023-04-26T19:46:12.424Z,11.05
2023-04-26T19:48:39.819Z,10.88
2023-04-26T19:51:07.344Z,8.43
2023-04-26T19:53:35.504Z,7.57
2023-04-26T19:56:02.372Z,12.73
2023-04-26T19:58:29.281Z,11.82
2023-04-26T20:00:56.410Z,11.32
2023-04-26T20:03:23.418Z,10.07
2023-04-26T20:05:50.394Z,10.32
2023-04-26T20:08:17.307Z,8.13
2023-04-26T20:10:44.216Z,12.20
2023-04-26T20:13:11.771Z,8.15
2023-04-26T20:15:38.915Z,10.07
2023-04-26T20:18:06.237Z,6.45
2023-04-26T20:20:33.301Z,7.25
2023-04-26T20:23:00.301Z,23.00
2023-04-26T20:25:27.275Z,7.65
2023-04-26T20:27:54.234Z,4.32
2023-04-26T20:30:21.159Z,9.57
2023-04-26T20:32:48.385Z,7.72
2023-04-26T20:35:15.365Z,7.97
2023-04-26T20:37:42.244Z,9.68
2023-04-26T20:40:09.761Z,9.68
2023-04-26T20:42:36.797Z,8.27
2023-04-26T20:45:04.050Z,10.45
2023-04-26T20:47:31.539Z,6.72
2023-04-26T20:49:58.579Z,7.87
2023-04-26T20:52:25.821Z,7.97
2023-04-26T20:54:52.704Z,6.60
2023-04-26T20:57:19.639Z,10.43
2023-04-26T20:59:46.780Z,9.80
2023-04-26T21:02:13.868Z,9.23
2023-04-26T21:04:42.712Z,9.85
2023-04-26T21:07:10.410Z,20.90
2023-04-26T21:09:37.455Z,16.73
2023-04-26T21:12:04.893Z,21.60
2023-04-26T21:14:31.964Z,27.00
2023-04-26T21:16:58.972Z,13.55
2023-04-26T21:19:26.096Z,20.08
2023-04-26T21:21:53.144Z,18.37
2023-04-26T21:24:20.072Z,16.85
2023-04-26T21:26:47.065Z,14.82
2023-04-26T21:29:14.036Z,19.08
2023-04-26T21:31:41.081Z,13.35
2023-04-26T21:34:08.090Z,14.27
2023-04-26T21:36:34.996Z,15.05
2023-04-26T21:39:01.886Z,12.77
2023-04-26T21:41:28.849Z,10.38
2023-04-26T21:43:57.332Z,10.25
2023-04-26T21:46:24.402Z,13.70
2023-04-26T21:48:51.353Z,11.45
2023-04-26T21:51:20.195Z,8.48
2023-04-26T21:53:47.148Z,8.18
2023-04-26T21:56:14.989Z,10.57
2023-04-26T21:58:42.463Z,7.55
2023-04-26T22:01:14.983Z,7.55
2023-04-26T22:03:42.390Z,8.57
2023-04-26T22:06:09.892Z,6.20
2023-04-26T22:08:36.977Z,11.10
2023-04-26T22:11:04.378Z,9.15
2023-04-26T22:13:32.488Z,8.15
2023-04-26T22:15:59.741Z,8.65
2023-04-26T22:18:27.294Z,9.38
2023-04-26T22:20:54.313Z,6.18
2023-04-26T22:23:21.372Z,10.68
2023-04-26T22:25:48.375Z,7.93
2023-04-26T22:28:16.153Z,9.10
2023-04-26T22:30:43.144Z,9.82
2023-04-26T22:33:11.262Z,9.35
2023-04-26T22:35:38.516Z,10.70
2023-04-26T22:38:05.486Z,12.95
2023-04-26T22:40:32.859Z,9.27
2023-04-26T22:42:59.810Z,9.05
2023-04-26T22:45:26.788Z,14.48
2023-04-26T22:47:53.778Z,9.73
2023-04-26T22:50:21.123Z,9.45
2023-04-26T22:52:48.206Z,9.05
2023-04-26T22:55:15.139Z,9.95
2023-04-26T22:57:42.127Z,13.52
2023-04-26T23:00:10.335Z,7.87
2023-04-26T23:02:37.468Z,8.52
2023-04-26T23:05:05.548Z,8.73
2023-04-26T23:07:33.881Z,9.95
2023-04-26T23:10:00.940Z,8.60
2023-04-26T23:12:27.876Z,9.80
2023-04-26T23:14:58.652Z,9.73
2023-04-26T23:17:27.047Z,7.05
2023-04-26T23:19:54.256Z,6.70
2023-04-26T23:22:21.530Z,8.18
2023-04-26T23:24:48.568Z,9.80
2023-04-26T23:27:15.597Z,7.87
2023-04-26T23:29:42.537Z,5.72
2023-04-26T23:32:09.449Z,8.25
2023-04-26T23:34:36.341Z,6.43
2023-04-26T23:37:07.437Z,7.60
2023-04-26T23:39:35.352Z,6.37
2023-04-26T23:42:02.624Z,6.25
2023-04-26T23:44:29.642Z,7.00
2023-04-26T23:46:56.592Z,5.80
2023-04-26T23:49:23.679Z,7.07
2023-04-26T23:51:50.643Z,10.30
2023-04-26T23:54:17.557Z,5.47
2023-04-26T23:56:44.415Z,6.32
2023-04-26T23:59:11.502Z,8.15
